Time;durP1;ratioP1;P1;durP2;ratioP2;P2;SDS_P1;SDS_P2;PMS_P1;PMS_P2;Temp;Humidity;BMP_temperature;BMP_pressure;BME280_temperature;BME280_humidity;BME280_pressure;Samples;Min_cycle;Max_cycle;Signal;HPM_P1;HPM_P2
2024/01/13 00:01:01;;;;;;;577.28;36.60;;;;;;;;;;4989945;28;20053;-82
2024/01/13 00:03:27;;;;;;;95.70;14.45;;;;;;;;;;4979004;28;20415;-81
2024/01/13 00:05:52;;;;;;;41.33;12.32;;;;;;;;;;4989165;28;20031;-81
2024/01/13 00:08:17;;;;;;;158.25;18.55;;;;;;;;;;4993624;28;20034;-82
2024/01/13 00:10:43;;;;;;;157.73;19.48;;;;;;;;;;4997802;28;20034;-81
2024/01/13 00:13:08;;;;;;;52.80;13.80;;;;;;;;;;4975225;28;20039;-82
2024/01/13 00:15:34;;;;;;;37.35;14.10;;;;;;;;;;4990537;28;20015;-81
2024/01/13 00:18:00;;;;;;;118.40;17.92;;;;;;;;;;4971749;28;20041;-82
2024/01/13 00:20:25;;;;;;;67.50;15.65;;;;;;;;;;4954668;28;20125;-81
2024/01/13 00:22:50;;;;;;;102.55;16.77;;;;;;;;;;4976018;28;20407;-82
2024/01/13 00:25:16;;;;;;;359.83;29.95;;;;;;;;;;4989140;28;20035;-82
2024/01/13 00:27:41;;;;;;;34.70;13.35;;;;;;;;;;4988538;28;20034;-82
2024/01/13 00:30:07;;;;;;;106.50;17.10;;;;;;;;;;4970565;28;20042;-82
2024/01/13 00:32:32;;;;;;;70.47;14.75;;;;;;;;;;4993968;28;20451;-82
2024/01/13 00:34:58;;;;;;;396.38;30.02;;;;;;;;;;4984829;28;20114;-81
2024/01/13 00:37:23;;;;;;;229.82;22.52;;;;;;;;;;4969824;28;20129;-84
2024/01/13 00:39:48;;;;;;;64.93;14.93;;;;;;;;;;4974563;28;20112;-83
2024/01/13 00:42:14;;;;;;;237.00;23.02;;;;;;;;;;4978609;28;20041;-83
2024/01/13 00:44:39;;;;;;;127.72;15.20;;;;;;;;;;4979410;28;20105;-82
2024/01/13 00:47:04;;;;;;;106.55;15.40;;;;;;;;;;4994461;28;20045;-81
2024/01/13 00:49:29;;;;;;;59.65;16.27;;;;;;;;;;4984925;28;20035;-82
2024/01/13 00:51:55;;;;;;;350.63;27.95;;;;;;;;;;4967096;28;20034;-82
2024/01/13 00:54:21;;;;;;;24.52;11.32;;;;;;;;;;4974221;28;20042;-81
2024/01/13 00:56:46;;;;;;;144.50;18.23;;;;;;;;;;4996254;28;20134;-82
2024/01/13 00:59:11;;;;;;;36.90;12.43;;;;;;;;;;4988489;28;20092;-82
2024/01/13 01:01:37;;;;;;;36.83;13.93;;;;;;;;;;4988553;28;20132;-82
2024/01/13 01:04:03;;;;;;;24.65;11.15;;;;;;;;;;4962803;28;20058;-82
2024/01/13 01:06:28;;;;;;;40.88;13.02;;;;;;;;;;4961774;28;20070;-81
2024/01/13 01:08:53;;;;;;;41.25;12.50;;;;;;;;;;4984121;28;20089;-81
2024/01/13 01:11:18;;;;;;;25.85;10.98;;;;;;;;;;4985196;28;20113;-81
2024/01/13 01:13:44;;;;;;;94.43;17.02;;;;;;;;;;4987953;28;20046;-82
2024/01/13 01:16:09;;;;;;;137.20;15.55;;;;;;;;;;4971684;28;20046;-82
2024/01/13 01:18:35;;;;;;;28.08;10.98;;;;;;;;;;4985195;28;20566;-83
2024/01/13 01:21:00;;;;;;;659.50;40.88;;;;;;;;;;4967107;28;20050;-81
2024/01/13 01:23:25;;;;;;;36.40;9.18;;;;;;;;;;4986071;28;20574;-82
2024/01/13 01:25:50;;;;;;;43.58;14.48;;;;;;;;;;4988774;28;20049;-81
2024/01/13 01:28:16;;;;;;;26.05;11.65;;;;;;;;;;4962856;28;20490;-82
2024/01/13 01:30:41;;;;;;;130.18;15.15;;;;;;;;;;4988705;28;20034;-81
2024/01/13 01:33:06;;;;;;;32.78;11.45;;;;;;;;;;4989038;28;20030;-82
2024/01/13 01:35:32;;;;;;;27.13;11.18;;;;;;;;;;4995792;28;20651;-83
2024/01/13 01:37:57;;;;;;;33.88;12.80;;;;;;;;;;4958383;28;20058;-82
2024/01/13 01:40:24;;;;;;;38.40;13.88;;;;;;;;;;4971418;28;20065;-82
2024/01/13 01:42:49;;;;;;;28.98;11.57;;;;;;;;;;4976813;28;20499;-82
2024/01/13 01:45:15;;;;;;;44.90;11.43;;;;;;;;;;4979977;28;20038;-81
2024/01/13 01:47:42;;;;;;;21.92;10.48;;;;;;;;;;4962266;28;20038;-82
2024/01/13 01:50:08;;;;;;;48.35;13.10;;;;;;;;;;4964605;28;20098;-81
2024/01/13 01:52:35;;;;;;;28.23;12.45;;;;;;;;;;4983768;28;20115;-79
2024/01/13 01:55:01;;;;;;;30.90;11.10;;;;;;;;;;4973324;28;20125;-81
2024/01/13 01:57:26;;;;;;;55.78;11.30;;;;;;;;;;4987108;28;20035;-82
2024/01/13 01:59:52;;;;;;;64.10;10.65;;;;;;;;;;4959686;28;20108;-81
2024/01/13 02:02:19;;;;;;;48.88;11.40;;;;;;;;;;4957238;28;20167;-82
2024/01/13 02:04:46;;;;;;;252.43;22.42;;;;;;;;;;4989581;28;20038;-82
2024/01/13 02:07:11;;;;;;;33.08;12.27;;;;;;;;;;4988814;28;20058;-83
2024/01/13 02:09:37;;;;;;;92.28;13.07;;;;;;;;;;4959519;28;20053;-82
2024/01/13 02:12:03;;;;;;;19.90;9.40;;;;;;;;;;4980555;28;20504;-82
2024/01/13 02:14:28;;;;;;;103.45;14.70;;;;;;;;;;4984015;28;20051;-82
2024/01/13 02:16:54;;;;;;;41.47;11.55;;;;;;;;;;4978203;28;20301;-82
2024/01/13 02:19:19;;;;;;;19.05;9.02;;;;;;;;;;4984240;28;20065;-81
2024/01/13 02:21:45;;;;;;;23.42;8.60;;;;;;;;;;4983421;28;20039;-81
2024/01/13 02:24:10;;;;;;;22.45;7.88;;;;;;;;;;4961973;28;20377;-82
2024/01/13 02:26:36;;;;;;;15.90;7.53;;;;;;;;;;4988030;28;20031;-82
2024/01/13 02:29:02;;;;;;;14.60;6.82;;;;;;;;;;4995598;28;20038;-83
2024/01/13 02:31:27;;;;;;;30.17;8.68;;;;;;;;;;4995752;28;20068;-82
2024/01/13 02:33:52;;;;;;;17.15;8.32;;;;;;;;;;4970459;28;20030;-83
2024/01/13 02:36:18;;;;;;;20.88;6.35;;;;;;;;;;4978111;28;20518;-81
2024/01/13 02:38:43;;;;;;;9.65;5.22;;;;;;;;;;4978692;28;20026;-82
2024/01/13 02:41:09;;;;;;;19.92;8.25;;;;;;;;;;4995625;28;20061;-82
2024/01/13 02:43:35;;;;;;;18.80;7.13;;;;;;;;;;4995682;28;20117;-82
2024/01/13 02:46:00;;;;;;;13.90;6.53;;;;;;;;;;4986634;28;20049;-82
2024/01/13 02:48:29;;;;;;;18.92;8.13;;;;;;;;;;4978232;28;20565;-81
2024/01/13 02:50:59;;;;;;;11.63;6.35;;;;;;;;;;4988009;28;20038;-82
2024/01/13 02:53:24;;;;;;;7.75;5.53;;;;;;;;;;4957984;28;20364;-82
2024/01/13 02:55:49;;;;;;;15.90;7.57;;;;;;;;;;4993942;28;20069;-81
2024/01/13 02:58:14;;;;;;;68.32;10.07;;;;;;;;;;4986645;28;20038;-81
2024/01/13 03:00:40;;;;;;;14.48;7.63;;;;;;;;;;4995607;28;20043;-82
2024/01/13 03:03:05;;;;;;;12.10;6.65;;;;;;;;;;4993086;28;20038;-82
2024/01/13 03:05:30;;;;;;;11.27;6.53;;;;;;;;;;4990711;28;20061;-81
2024/01/13 03:07:55;;;;;;;18.83;6.47;;;;;;;;;;4992357;28;20061;-81
2024/01/13 03:10:21;;;;;;;13.63;7.03;;;;;;;;;;4995675;28;20034;-82
2024/01/13 03:12:46;;;;;;;11.07;4.78;;;;;;;;;;4972461;28;20062;-82
2024/01/13 03:15:11;;;;;;;52.03;9.10;;;;;;;;;;4980131;28;20049;-82
2024/01/13 03:17:37;;;;;;;41.15;6.95;;;;;;;;;;4970316;28;20042;-81
2024/01/13 03:20:03;;;;;;;15.50;6.90;;;;;;;;;;4978129;28;20066;-82
2024/01/13 03:22:28;;;;;;;3.30;2.97;;;;;;;;;;4994994;28;20129;-82
2024/01/13 03:24:53;;;;;;;12.73;6.22;;;;;;;;;;4991965;28;20121;-81
2024/01/13 03:27:18;;;;;;;116.45;11.38;;;;;;;;;;4979015;28;20531;-82
2024/01/13 03:29:44;;;;;;;8.93;5.82;;;;;;;;;;4989061;28;20756;-82
2024/01/13 03:32:09;;;;;;;9.90;5.30;;;;;;;;;;4990012;28;20034;-82
2024/01/13 03:34:34;;;;;;;7.07;4.57;;;;;;;;;;4968683;28;20082;-81
2024/01/13 03:36:59;;;;;;;11.13;4.65;;;;;;;;;;4992627;28;20030;-82
2024/01/13 03:39:25;;;;;;;15.82;5.65;;;;;;;;;;4992540;28;20114;-81
2024/01/13 03:41:50;;;;;;;12.88;6.03;;;;;;;;;;4997300;28;20038;-80
2024/01/13 03:44:15;;;;;;;13.38;5.82;;;;;;;;;;4988661;28;20049;-81
2024/01/13 03:46:41;;;;;;;14.75;6.53;;;;;;;;;;4971612;28;20097;-80
2024/01/13 03:49:06;;;;;;;13.82;8.05;;;;;;;;;;4966794;28;20560;-81
2024/01/13 03:51:31;;;;;;;10.27;5.45;;;;;;;;;;4973811;28;20050;-80
2024/01/13 03:53:56;;;;;;;15.70;6.10;;;;;;;;;;4973462;28;20176;-81
2024/01/13 03:56:22;;;;;;;19.65;8.90;;;;;;;;;;4997634;28;20534;-80
2024/01/13 03:58:47;;;;;;;7.68;4.90;;;;;;;;;;4977928;28;20042;-81
2024/01/13 04:01:12;;;;;;;10.40;5.07;;;;;;;;;;4977831;28;20078;-82
2024/01/13 04:03:38;;;;;;;13.63;7.13;;;;;;;;;;4982539;28;20388;-82
2024/01/13 04:06:03;;;;;;;11.70;6.55;;;;;;;;;;4972214;28;20506;-81
2024/01/13 04:08:29;;;;;;;22.75;7.80;;;;;;;;;;4980468;28;20042;-81
2024/01/13 04:10:54;;;;;;;15.10;5.88;;;;;;;;;;4983278;28;20110;-82
2024/01/13 04:13:19;;;;;;;39.20;7.05;;;;;;;;;;4996438;28;20062;-83
2024/01/13 04:15:44;;;;;;;27.35;8.30;;;;;;;;;;4988456;28;20054;-83
2024/01/13 04:18:10;;;;;;;108.47;9.75;;;;;;;;;;4995033;28;20034;-82
2024/01/13 04:20:35;;;;;;;18.70;6.10;;;;;;;;;;4994584;28;20042;-82
2024/01/13 04:23:00;;;;;;;60.88;11.40;;;;;;;;;;4967803;28;20546;-81
2024/01/13 04:25:26;;;;;;;13.48;6.40;;;;;;;;;;4987274;28;20042;-82
2024/01/13 04:27:52;;;;;;;18.42;7.43;;;;;;;;;;4988639;28;20046;-82
2024/01/13 04:30:18;;;;;;;27.83;6.28;;;;;;;;;;4989090;28;20050;-82
2024/01/13 04:32:44;;;;;;;40.80;7.05;;;;;;;;;;4985480;28;20095;-82
2024/01/13 04:35:11;;;;;;;13.23;6.13;;;;;;;;;;4988487;28;20046;-81
2024/01/13 04:37:37;;;;;;;8.25;4.70;;;;;;;;;;4990649;28;20101;-82
2024/01/13 04:40:03;;;;;;;9.05;5.07;;;;;;;;;;4995788;28;20039;-82
2024/01/13 04:42:31;;;;;;;12.57;6.30;;;;;;;;;;4981119;28;20047;-79
2024/01/13 04:44:56;;;;;;;13.35;7.47;;;;;;;;;;4977723;28;20117;-82
2024/01/13 04:47:21;;;;;;;10.73;6.07;;;;;;;;;;4995031;28;20124;-82
2024/01/13 04:49:47;;;;;;;8.02;5.63;;;;;;;;;;4993099;28;20038;-81
2024/01/13 04:52:12;;;;;;;11.75;5.40;;;;;;;;;;4981820;28;20163;-82
2024/01/13 04:54:37;;;;;;;20.33;5.80;;;;;;;;;;4968623;28;20569;-78
2024/01/13 04:57:03;;;;;;;11.32;6.28;;;;;;;;;;4984214;28;20035;-83
2024/01/13 04:59:29;;;;;;;12.93;6.13;;;;;;;;;;4984884;28;20503;-82
2024/01/13 05:01:57;;;;;;;6.10;5.35;;;;;;;;;;4987713;28;20125;-80
2024/01/13 05:04:22;;;;;;;8.30;5.40;;;;;;;;;;4987670;28;20038;-82
2024/01/13 05:06:48;;;;;;;9.38;4.07;;;;;;;;;;4961968;28;20124;-82
2024/01/13 05:09:14;;;;;;;9.40;5.40;;;;;;;;;;4989097;28;20045;-82
2024/01/13 05:11:39;;;;;;;9.07;5.47;;;;;;;;;;4993175;28;20031;-82
2024/01/13 05:14:04;;;;;;;7.05;4.50;;;;;;;;;;4960794;28;20131;-82
2024/01/13 05:16:29;;;;;;;12.52;5.85;;;;;;;;;;4956784;28;20050;-81
2024/01/13 05:18:55;;;;;;;15.80;6.28;;;;;;;;;;4966764;28;20407;-82
2024/01/13 05:21:20;;;;;;;10.80;5.07;;;;;;;;;;4984426;28;20101;-81
2024/01/13 05:23:45;;;;;;;9.13;5.32;;;;;;;;;;4984838;28;20030;-81
2024/01/13 05:26:11;;;;;;;16.02;7.05;;;;;;;;;;4989418;28;20130;-82
2024/01/13 05:28:36;;;;;;;18.05;7.75;;;;;;;;;;4969082;28;20042;-82
2024/01/13 05:31:01;;;;;;;11.82;5.65;;;;;;;;;;4981024;28;20035;-82
2024/01/13 05:33:27;;;;;;;10.52;5.72;;;;;;;;;;4973411;28;20034;-81
2024/01/13 05:35:53;;;;;;;6.65;4.25;;;;;;;;;;4989824;28;20042;-82
2024/01/13 05:38:19;;;;;;;7.88;4.80;;;;;;;;;;4988425;28;20042;-82
2024/01/13 05:40:44;;;;;;;12.00;5.85;;;;;;;;;;4987513;28;20045;-82
2024/01/13 05:43:10;;;;;;;17.40;9.23;;;;;;;;;;4975245;28;20041;-80
2024/01/13 05:45:35;;;;;;;10.30;4.90;;;;;;;;;;4975378;28;20034;-81
2024/01/13 05:48:00;;;;;;;8.65;4.40;;;;;;;;;;4981299;28;20035;-82
2024/01/13 05:50:27;;;;;;;10.15;5.35;;;;;;;;;;4983767;28;20039;-82
2024/01/13 05:52:52;;;;;;;8.38;4.53;;;;;;;;;;4966243;28;20126;-82
2024/01/13 05:55:17;;;;;;;7.00;4.90;;;;;;;;;;4948945;28;20070;-82
2024/01/13 05:57:42;;;;;;;7.15;4.75;;;;;;;;;;4994474;28;20065;-82
2024/01/13 06:00:09;;;;;;;5.78;4.18;;;;;;;;;;4971443;28;20110;-81
2024/01/13 06:02:35;;;;;;;7.90;4.30;;;;;;;;;;4962992;28;20042;-82
2024/01/13 06:05:00;;;;;;;9.10;4.32;;;;;;;;;;4968032;28;20097;-81
2024/01/13 06:07:25;;;;;;;6.10;4.10;;;;;;;;;;4994919;28;20525;-82
2024/01/13 06:09:51;;;;;;;6.43;4.20;;;;;;;;;;4995796;28;20041;-81
2024/01/13 06:12:17;;;;;;;11.93;4.80;;;;;;;;;;4996246;28;20058;-80
2024/01/13 06:14:42;;;;;;;6.43;3.25;;;;;;;;;;4979710;28;20034;-81
2024/01/13 06:17:08;;;;;;;9.98;5.15;;;;;;;;;;5000452;28;20065;-82
2024/01/13 06:19:34;;;;;;;6.60;3.47;;;;;;;;;;5000021;28;20041;-82
2024/01/13 06:21:59;;;;;;;5.30;3.72;;;;;;;;;;4994724;28;20470;-82
2024/01/13 06:24:24;;;;;;;12.90;5.03;;;;;;;;;;4993020;28;20038;-82
2024/01/13 06:26:49;;;;;;;10.90;6.10;;;;;;;;;;4992385;28;20026;-80
2024/01/13 06:29:15;;;;;;;9.27;5.45;;;;;;;;;;4992720;28;20476;-81
2024/01/13 06:31:40;;;;;;;16.80;7.47;;;;;;;;;;4996061;28;20034;-82
2024/01/13 06:34:06;;;;;;;8.23;4.35;;;;;;;;;;4996314;28;20035;-80
2024/01/13 06:36:31;;;;;;;9.63;5.00;;;;;;;;;;4968673;28;20058;-81
2024/01/13 06:38:56;;;;;;;14.63;5.47;;;;;;;;;;4986539;28;20034;-81
2024/01/13 06:41:22;;;;;;;10.77;5.68;;;;;;;;;;5000111;28;20035;-81
2024/01/13 06:43:47;;;;;;;13.13;5.95;;;;;;;;;;4994119;28;20101;-82
2024/01/13 06:46:12;;;;;;;5.90;2.78;;;;;;;;;;4991510;28;20043;-83
2024/01/13 06:48:38;;;;;;;6.43;4.18;;;;;;;;;;4973836;28;20064;-82
2024/01/13 06:51:03;;;;;;;7.70;4.40;;;;;;;;;;4968020;28;20038;-80
2024/01/13 06:53:29;;;;;;;10.70;4.85;;;;;;;;;;4990160;28;20027;-82
2024/01/13 06:55:54;;;;;;;5.25;3.33;;;;;;;;;;4963418;28;20415;-82
2024/01/13 06:58:19;;;;;;;6.47;3.63;;;;;;;;;;4989967;28;20651;-80
2024/01/13 07:00:45;;;;;;;6.68;4.63;;;;;;;;;;4991478;28;20142;-83
2024/01/13 07:03:11;;;;;;;7.57;5.07;;;;;;;;;;4970418;28;20026;-82
2024/01/13 07:05:36;;;;;;;2.03;1.88;;;;;;;;;;4973996;28;20034;-83
2024/01/13 07:08:03;;;;;;;5.60;3.67;;;;;;;;;;4982214;28;20571;-81
2024/01/13 07:10:28;;;;;;;2.35;2.15;;;;;;;;;;4951660;28;20046;-82
2024/01/13 07:12:54;;;;;;;7.97;4.55;;;;;;;;;;4970322;28;20034;-80
2024/01/13 07:15:19;;;;;;;5.53;3.58;;;;;;;;;;4982983;28;20039;-80
2024/01/13 07:17:44;;;;;;;5.55;4.18;;;;;;;;;;4989784;28;20104;-81
2024/01/13 07:20:10;;;;;;;9.43;5.00;;;;;;;;;;4960240;28;20448;-82
2024/01/13 07:22:35;;;;;;;14.25;3.40;;;;;;;;;;4957126;28;20039;-82
2024/01/13 07:25:02;;;;;;;4.72;3.38;;;;;;;;;;4980714;28;20050;-82
2024/01/13 07:27:27;;;;;;;9.13;4.85;;;;;;;;;;4973571;28;20054;-80
2024/01/13 07:29:52;;;;;;;8.63;5.20;;;;;;;;;;4986476;28;20093;-82
2024/01/13 07:32:18;;;;;;;7.65;4.68;;;;;;;;;;4970365;28;20034;-81
2024/01/13 07:34:43;;;;;;;13.95;3.65;;;;;;;;;;4981874;28;20403;-81
2024/01/13 07:37:08;;;;;;;5.75;4.43;;;;;;;;;;4987187;28;20120;-81
2024/01/13 07:39:33;;;;;;;75.75;6.25;;;;;;;;;;4950700;28;20042;-81
2024/01/13 07:41:59;;;;;;;176.18;11.43;;;;;;;;;;4981539;28;20043;-81
2024/01/13 07:44:25;;;;;;;7.35;4.28;;;;;;;;;;4987820;28;20053;-81
2024/01/13 07:46:50;;;;;;;10.98;4.20;;;;;;;;;;4988266;28;20034;-81
2024/01/13 07:49:15;;;;;;;7.68;4.80;;;;;;;;;;4986784;28;20046;-82
2024/01/13 07:51:41;;;;;;;28.95;3.95;;;;;;;;;;4960341;28;20037;-81
2024/01/13 07:54:06;;;;;;;4.38;3.35;;;;;;;;;;4980158;28;20035;-82
2024/01/13 07:56:32;;;;;;;20.20;4.55;;;;;;;;;;4991933;28;20050;-84
2024/01/13 07:58:58;;;;;;;8.38;5.43;;;;;;;;;;4978985;28;20125;-82
2024/01/13 08:01:23;;;;;;;6.85;4.43;;;;;;;;;;4980850;28;20104;-79
2024/01/13 08:03:48;;;;;;;6.15;3.70;;;;;;;;;;4978837;28;20038;-82
2024/01/13 08:06:14;;;;;;;7.95;4.97;;;;;;;;;;4985833;28;20038;-83
2024/01/13 08:08:39;;;;;;;7.80;4.65;;;;;;;;;;4990213;28;20503;-82
2024/01/13 08:11:04;;;;;;;25.17;10.90;;;;;;;;;;4986226;28;20097;-84
2024/01/13 08:13:30;;;;;;;9.32;4.97;;;;;;;;;;4965393;28;20034;-82
2024/01/13 08:15:55;;;;;;;12.73;6.53;;;;;;;;;;4965660;28;20035;-83
2024/01/13 08:18:20;;;;;;;4.72;3.17;;;;;;;;;;4960318;28;20049;-82
2024/01/13 08:20:46;;;;;;;6.20;3.15;;;;;;;;;;4980641;28;20031;-82
2024/01/13 08:23:11;;;;;;;15.73;7.13;;;;;;;;;;4973099;28;20047;-82
2024/01/13 08:25:36;;;;;;;5.88;3.88;;;;;;;;;;4968207;28;20046;-83
2024/01/13 08:28:02;;;;;;;9.30;5.32;;;;;;;;;;4972690;28;20047;-83
2024/01/13 08:30:27;;;;;;;9.35;5.53;;;;;;;;;;4986646;28;20051;-81
2024/01/13 08:32:53;;;;;;;31.83;5.80;;;;;;;;;;4989918;28;20031;-83
2024/01/13 08:35:19;;;;;;;31.13;6.38;;;;;;;;;;4985031;28;20043;-83
2024/01/13 08:37:44;;;;;;;6.97;4.70;;;;;;;;;;4961876;28;20050;-83
2024/01/13 08:40:10;;;;;;;8.13;4.93;;;;;;;;;;4982592;28;20074;-83
2024/01/13 08:42:37;;;;;;;15.88;5.45;;;;;;;;;;4983946;28;20046;-83
2024/01/13 08:45:03;;;;;;;8.80;4.65;;;;;;;;;;4991228;28;20035;-83
2024/01/13 08:47:28;;;;;;;10.68;5.18;;;;;;;;;;4952945;28;20562;-83
2024/01/13 08:49:54;;;;;;;34.65;7.50;;;;;;;;;;4987186;28;20046;-83
2024/01/13 08:52:19;;;;;;;12.57;6.40;;;;;;;;;;4966676;28;20059;-82
2024/01/13 08:54:44;;;;;;;16.20;5.93;;;;;;;;;;4989214;28;20049;-83
2024/01/13 08:57:09;;;;;;;9.82;5.30;;;;;;;;;;4988593;28;20115;-84
2024/01/13 08:59:37;;;;;;;10.38;5.18;;;;;;;;;;4991329;28;20042;-82
2024/01/13 09:02:03;;;;;;;9.10;6.00;;;;;;;;;;4970945;28;20509;-83
2024/01/13 09:04:28;;;;;;;11.23;6.28;;;;;;;;;;4984770;28;20053;-83
2024/01/13 09:06:53;;;;;;;12.48;5.70;;;;;;;;;;4994495;28;20042;-83
2024/01/13 09:09:18;;;;;;;10.07;5.75;;;;;;;;;;4989500;28;20635;-83
2024/01/13 09:11:46;;;;;;;12.40;6.03;;;;;;;;;;4991982;28;20031;-83
2024/01/13 09:14:12;;;;;;;17.55;5.97;;;;;;;;;;4993431;28;20046;-83
2024/01/13 09:16:38;;;;;;;10.30;6.30;;;;;;;;;;4967489;28;20127;-83
2024/01/13 09:19:04;;;;;;;14.63;7.47;;;;;;;;;;4974956;28;20113;-81
2024/01/13 09:21:29;;;;;;;12.10;7.28;;;;;;;;;;4989279;28;20058;-81
2024/01/13 09:23:54;;;;;;;17.20;8.75;;;;;;;;;;4986599;28;20042;-82
2024/01/13 09:26:19;;;;;;;17.88;8.13;;;;;;;;;;4988017;28;20034;-83
2024/01/13 09:28:46;;;;;;;14.70;7.18;;;;;;;;;;4968012;28;20039;-83
2024/01/13 09:31:11;;;;;;;15.48;7.00;;;;;;;;;;4991121;28;20034;-83
2024/01/13 09:33:36;;;;;;;16.00;7.82;;;;;;;;;;4985547;28;20108;-84
2024/01/13 09:36:02;;;;;;;40.65;15.48;;;;;;;;;;4971261;28;20070;-83
2024/01/13 09:38:27;;;;;;;26.40;12.60;;;;;;;;;;4971738;28;20047;-83
2024/01/13 09:40:53;;;;;;;14.82;7.95;;;;;;;;;;4984199;28;21101;-80
2024/01/13 09:43:32;;;;;;;23.95;8.57;;;;;;;;;;4978405;28;20035;-81
2024/01/13 09:45:57;;;;;;;16.23;6.57;;;;;;;;;;4953062;28;20046;-82
2024/01/13 09:48:23;;;;;;;11.30;5.63;;;;;;;;;;4965008;28;20130;-82
2024/01/13 09:50:51;;;;;;;12.27;6.68;;;;;;;;;;4983092;28;20094;-83
2024/01/13 09:53:24;;;;;;;7.63;4.95;;;;;;;;;;4976103;28;20070;-82
2024/01/13 09:55:55;;;;;;;11.32;6.03;;;;;;;;;;4977892;28;20125;-82
2024/01/13 09:58:20;;;;;;;11.77;7.32;;;;;;;;;;4965822;28;20042;-82
2024/01/13 10:00:47;;;;;;;20.00;8.18;;;;;;;;;;4985659;28;20097;-80
2024/01/13 10:03:12;;;;;;;14.38;8.13;;;;;;;;;;4985410;28;20458;-83
2024/01/13 10:05:38;;;;;;;13.38;6.28;;;;;;;;;;4994858;28;20065;-81
2024/01/13 10:08:04;;;;;;;9.82;6.03;;;;;;;;;;4974324;28;20077;-82
2024/01/13 10:10:32;;;;;;;12.18;7.22;;;;;;;;;;4990257;28;20509;-83
2024/01/13 10:12:57;;;;;;;11.18;6.53;;;;;;;;;;4981861;28;20046;-82
2024/01/13 10:15:22;;;;;;;11.60;7.20;;;;;;;;;;4983326;28;20050;-82
2024/01/13 10:17:51;;;;;;;9.18;6.35;;;;;;;;;;4958374;28;20046;-83
2024/01/13 10:20:16;;;;;;;10.95;6.25;;;;;;;;;;4967271;28;20563;-81
2024/01/13 10:22:42;;;;;;;10.73;5.95;;;;;;;;;;4971226;28;20121;-84
2024/01/13 10:25:08;;;;;;;10.25;6.22;;;;;;;;;;4962036;28;20644;-82
2024/01/13 10:27:36;;;;;;;14.43;6.97;;;;;;;;;;4986492;28;20038;-83
2024/01/13 10:30:04;;;;;;;18.23;9.48;;;;;;;;;;4988595;28;20042;-83
2024/01/13 10:32:30;;;;;;;23.27;9.95;;;;;;;;;;4984492;28;20159;-82
2024/01/13 10:34:55;;;;;;;20.33;9.98;;;;;;;;;;4953150;28;20594;-83
2024/01/13 10:37:21;;;;;;;16.10;9.07;;;;;;;;;;4991533;28;20043;-84
2024/01/13 10:39:46;;;;;;;22.23;11.45;;;;;;;;;;4981253;28;20049;-82
2024/01/13 10:42:15;;;;;;;17.15;8.60;;;;;;;;;;4985805;28;20515;-82
2024/01/13 10:44:43;;;;;;;15.50;9.02;;;;;;;;;;4985166;28;20037;-83
2024/01/13 10:47:14;;;;;;;17.27;8.48;;;;;;;;;;4970074;28;20137;-82
2024/01/13 10:49:41;;;;;;;18.45;8.85;;;;;;;;;;4971062;28;20066;-83
2024/01/13 10:52:07;;;;;;;15.35;8.45;;;;;;;;;;4989452;28;20579;-83
2024/01/13 10:54:33;;;;;;;18.60;9.25;;;;;;;;;;4979510;28;20059;-83
2024/01/13 10:56:59;;;;;;;25.70;11.82;;;;;;;;;;4985778;28;20038;-83
2024/01/13 10:59:28;;;;;;;30.00;10.63;;;;;;;;;;4963592;28;20090;-82
2024/01/13 11:01:56;;;;;;;20.58;7.85;;;;;;;;;;4985474;28;20531;-81
2024/01/13 11:04:22;;;;;;;30.40;14.15;;;;;;;;;;4989263;28;20049;-83
2024/01/13 11:06:47;;;;;;;22.10;10.95;;;;;;;;;;4991933;28;20688;-84
2024/01/13 11:09:18;;;;;;;21.10;11.40;;;;;;;;;;4987961;28;20050;-82
2024/01/13 11:11:53;;;;;;;18.65;9.73;;;;;;;;;;4986758;28;20038;-82
2024/01/13 11:14:34;;;;;;;16.90;8.63;;;;;;;;;;4975546;28;20529;-82
2024/01/13 11:17:01;;;;;;;20.38;10.48;;;;;;;;;;4957203;28;20031;-83
2024/01/13 11:19:27;;;;;;;14.98;9.02;;;;;;;;;;4981077;28;20045;-82
2024/01/13 11:21:52;;;;;;;13.88;8.07;;;;;;;;;;4980667;28;20051;-82
2024/01/13 11:24:19;;;;;;;16.83;8.55;;;;;;;;;;4984098;28;20438;-82
2024/01/13 11:26:48;;;;;;;20.77;10.57;;;;;;;;;;4963131;28;20134;-82
2024/01/13 11:29:17;;;;;;;18.92;10.88;;;;;;;;;;4978857;28;20177;-83
2024/01/13 11:31:45;;;;;;;20.95;10.93;;;;;;;;;;4981541;28;20045;-82
2024/01/13 11:34:12;;;;;;;20.25;11.70;;;;;;;;;;4959511;28;20019;-83
2024/01/13 11:36:45;;;;;;;25.52;11.93;;;;;;;;;;4979659;28;20042;-83
2024/01/13 11:39:10;;;;;;;19.80;10.95;;;;;;;;;;4972193;28;20027;-84
2024/01/13 11:41:38;;;;;;;32.10;11.35;;;;;;;;;;4976679;28;20115;-82
2024/01/13 11:44:05;;;;;;;19.58;10.85;;;;;;;;;;4974039;28;20076;-82
2024/01/13 11:46:33;;;;;;;22.88;11.95;;;;;;;;;;4979521;28;20128;-83
2024/01/13 11:49:04;;;;;;;20.00;10.68;;;;;;;;;;4981101;28;20043;-84
2024/01/13 11:51:58;;;;;;;18.65;8.88;;;;;;;;;;4953880;28;20359;-81
2024/01/13 11:54:28;;;;;;;22.80;11.00;;;;;;;;;;4981207;28;20126;-81
2024/01/13 11:56:53;;;;;;;121.82;14.57;;;;;;;;;;4981124;28;20326;-84
2024/01/13 11:59:20;;;;;;;121.72;14.48;;;;;;;;;;4976475;28;20058;-83
2024/01/13 12:01:46;;;;;;;25.65;12.77;;;;;;;;;;4989057;28;20049;-83
2024/01/13 12:04:12;;;;;;;22.13;10.23;;;;;;;;;;4986667;28;20035;-82
2024/01/13 12:06:40;;;;;;;21.13;11.50;;;;;;;;;;4987092;28;20038;-82
2024/01/13 12:09:05;;;;;;;19.13;11.63;;;;;;;;;;4990932;28;20037;-83
2024/01/13 12:11:30;;;;;;;21.27;11.48;;;;;;;;;;4988319;28;20106;-83
2024/01/13 12:13:56;;;;;;;22.48;11.68;;;;;;;;;;4947840;28;1036290;-83
2024/01/13 12:16:21;;;;;;;20.33;11.68;;;;;;;;;;4972974;28;20455;-82
2024/01/13 12:18:47;;;;;;;7.75;5.07;;;;;;;;;;4977211;28;20492;-84
2024/01/13 12:21:13;;;;;;;19.63;11.00;;;;;;;;;;4961586;28;20105;-83
2024/01/13 12:23:39;;;;;;;19.58;10.43;;;;;;;;;;4980878;28;20474;-83
2024/01/13 12:26:04;;;;;;;26.52;13.93;;;;;;;;;;4976639;28;20109;-82
2024/01/13 12:28:30;;;;;;;18.27;10.85;;;;;;;;;;4988240;28;20042;-82
2024/01/13 12:30:55;;;;;;;21.67;12.13;;;;;;;;;;4977180;28;20070;-83
2024/01/13 12:33:23;;;;;;;22.70;11.45;;;;;;;;;;4977340;28;20030;-82
2024/01/13 12:35:50;;;;;;;18.65;10.95;;;;;;;;;;4978612;28;20082;-82
2024/01/13 12:38:16;;;;;;;11.57;7.57;;;;;;;;;;4968794;28;20109;-82
2024/01/13 12:40:41;;;;;;;16.55;8.27;;;;;;;;;;4989602;28;20057;-84
2024/01/13 12:43:07;;;;;;;17.27;9.75;;;;;;;;;;4979936;28;20039;-83
2024/01/13 12:45:32;;;;;;;19.98;10.88;;;;;;;;;;4983591;28;20073;-83
2024/01/13 12:47:58;;;;;;;24.50;10.63;;;;;;;;;;4966780;28;20090;-85
2024/01/13 12:50:23;;;;;;;21.58;9.50;;;;;;;;;;4988037;28;20046;-85
2024/01/13 12:52:49;;;;;;;18.80;9.60;;;;;;;;;;4996669;28;20503;-83
2024/01/13 12:55:15;;;;;;;17.35;9.05;;;;;;;;;;4988302;28;20045;-84
2024/01/13 12:57:41;;;;;;;19.45;9.55;;;;;;;;;;4985966;28;20046;-82
2024/01/13 13:00:07;;;;;;;28.33;10.10;;;;;;;;;;4982709;28;20125;-83
2024/01/13 13:02:37;;;;;;;16.83;9.23;;;;;;;;;;4991795;28;20054;-83
2024/01/13 13:05:03;;;;;;;21.35;9.35;;;;;;;;;;4995201;28;20068;-81
2024/01/13 13:07:28;;;;;;;18.98;10.48;;;;;;;;;;4979422;28;20133;-84
2024/01/13 13:09:57;;;;;;;20.25;9.77;;;;;;;;;;4976665;28;20054;-83
2024/01/13 13:12:24;;;;;;;19.10;10.38;;;;;;;;;;4987680;28;20061;-84
2024/01/13 13:14:49;;;;;;;19.02;10.38;;;;;;;;;;4990037;28;20553;-82
2024/01/13 13:17:15;;;;;;;22.15;11.85;;;;;;;;;;4983526;28;20089;-85
2024/01/13 13:19:41;;;;;;;19.52;10.73;;;;;;;;;;4984921;28;20523;-85
2024/01/13 13:22:07;;;;;;;21.45;10.95;;;;;;;;;;4982183;28;20554;-83
2024/01/13 13:24:33;;;;;;;21.52;10.80;;;;;;;;;;4977740;28;20146;-84
2024/01/13 13:26:58;;;;;;;19.75;11.35;;;;;;;;;;4990571;28;20043;-82
2024/01/13 13:29:24;;;;;;;24.83;9.35;;;;;;;;;;4996518;28;20081;-83
2024/01/13 13:31:50;;;;;;;21.50;10.10;;;;;;;;;;4996819;28;20041;-84
2024/01/13 13:34:15;;;;;;;17.02;9.68;;;;;;;;;;4970636;28;20046;-85
2024/01/13 13:36:41;;;;;;;18.83;9.88;;;;;;;;;;4996836;28;20041;-80
2024/01/13 13:39:06;;;;;;;17.63;9.02;;;;;;;;;;4988596;28;20084;-85
2024/01/13 13:41:31;;;;;;;20.92;11.07;;;;;;;;;;4995278;28;20077;-85
2024/01/13 13:43:57;;;;;;;25.65;12.35;;;;;;;;;;4956349;28;20042;-81
2024/01/13 13:46:22;;;;;;;26.45;12.15;;;;;;;;;;4971084;28;20050;-83
2024/01/13 13:48:47;;;;;;;22.05;11.48;;;;;;;;;;4952083;28;20471;-83
2024/01/13 13:51:13;;;;;;;24.63;11.02;;;;;;;;;;4966363;28;20038;-84
2024/01/13 13:53:38;;;;;;;27.58;12.55;;;;;;;;;;4970932;28;20030;-83
2024/01/13 13:56:04;;;;;;;23.73;10.88;;;;;;;;;;4982396;28;20038;-85
2024/01/13 13:58:29;;;;;;;24.98;10.65;;;;;;;;;;4979086;28;20031;-82
2024/01/13 14:00:55;;;;;;;29.02;9.88;;;;;;;;;;4980957;28;20038;-82
2024/01/13 14:03:21;;;;;;;19.40;10.50;;;;;;;;;;4969848;28;20106;-84
2024/01/13 14:05:47;;;;;;;18.73;9.25;;;;;;;;;;4959968;28;20031;-83
2024/01/13 14:08:12;;;;;;;22.15;10.55;;;;;;;;;;4984987;28;20047;-84
2024/01/13 14:10:38;;;;;;;23.77;11.77;;;;;;;;;;4977131;28;20109;-84
2024/01/13 14:13:04;;;;;;;22.73;10.25;;;;;;;;;;4966333;28;20046;-85
2024/01/13 14:15:29;;;;;;;20.85;9.70;;;;;;;;;;4976986;28;20089;-84
2024/01/13 14:17:56;;;;;;;22.30;9.30;;;;;;;;;;4961403;28;20404;-86
2024/01/13 14:20:21;;;;;;;11.75;6.65;;;;;;;;;;4962246;28;20039;-85